Time;durP1;ratioP1;P1;durP2;ratioP2;P2;SDS_P1;SDS_P2;PMS_P1;PMS_P2;Temp;Humidity;BMP_temperature;BMP_pressure;BME280_temperature;BME280_humidity;BME280_pressure;Samples;Min_cycle;Max_cycle;Signal;HPM_P1;HPM_P2
2023/03/21 00:02:10;;;;;;;;;;;;;;;;;;5053435;28;19920;-84
2023/03/21 00:04:36;;;;;;;;;;;;;;;;;;5053277;28;19956;-84
2023/03/21 00:07:01;;;;;;;;;;;;;;;;;;5053328;28;20284;-84
2023/03/21 00:09:27;;;;;;;;;;;;;;;;;;5053257;28;19924;-85
2023/03/21 00:11:52;;;;;;;;;;;;;;;;;;5055735;28;20023;-84
2023/03/21 00:14:18;;;;;;;;;;;;;;;;;;5073242;28;19917;-85
2023/03/21 00:16:44;;;;;;;;;;;;;;;;;;5073129;28;19956;-84
2023/03/21 00:19:10;;;;;;;;;;;;;;;;;;5071959;28;19973;-85
2023/03/21 00:21:37;;;;;;;;;;;;;;;;;;5073137;28;19916;-85
2023/03/21 00:24:03;;;;;;;;;;;;;;;;;;5073087;28;19939;-83
2023/03/21 00:26:28;;;;;;;;;;;;;;;;;;5073101;28;19924;-85
2023/03/21 00:28:54;;;;;;;;;;;;;;;;;;5072904;28;19916;-86
2023/03/21 00:31:19;;;;;;;;;;;;;;;;;;5072949;28;19969;-86
2023/03/21 00:33:45;;;;;;;;;;;;;;;;;;5072915;28;19916;-85
2023/03/21 00:36:11;;;;;;;;;;;;;;;;;;5071675;28;20375;-85
2023/03/21 00:38:37;;;;;;;;;;;;;;;;;;5072826;28;19966;-85
2023/03/21 00:41:06;;;;;;;;;;;;;;;;;;5072880;28;19948;-85
2023/03/21 00:43:31;;;;;;;;;;;;;;;;;;5073022;28;19916;-85
2023/03/21 00:45:57;;;;;;;;;;;;;;;;;;5071559;28;19920;-86
2023/03/21 00:48:23;;;;;;;;;;;;;;;;;;5071465;28;19924;-85
2023/03/21 00:50:51;;;;;;;;;;;;;;;;;;5072924;28;19916;-84
2023/03/21 00:53:17;;;;;;;;;;;;;;;;;;5088976;28;19920;-86
2023/03/21 00:55:42;;;;;;;;;;;;;;;;;;5093099;28;19920;-84
2023/03/21 00:58:08;;;;;;;;;;;;;;;;;;5092950;28;19969;-85
2023/03/21 01:00:35;;;;;;;;;;;;;;;;;;5094958;28;20371;-84
2023/03/21 01:03:04;;;;;;;;;;;;;;;;;;5096746;28;20010;-86
2023/03/21 01:08:17;;;;;;;;;;;;;;;;;;5096583;28;19953;-85
2023/03/21 01:10:46;;;;;;;;;;;;;;;;;;5096657;28;19916;-85
2023/03/21 01:13:13;;;;;;;;;;;;;;;;;;5096238;28;19920;-85
2023/03/21 01:15:46;;;;;;;;;;;;;;;;;;5078017;28;20326;-86
2023/03/21 01:18:12;;;;;;;;;;;;;;;;;;5096381;28;20381;-86
2023/03/21 01:20:40;;;;;;;;;;;;;;;;;;5078037;28;19926;-86
2023/03/21 01:23:05;;;;;;;;;;;;;;;;;;5096026;28;19922;-85
2023/03/21 01:25:31;;;;;;;;;;;;;;;;;;5096240;28;20010;-85
2023/03/21 01:27:56;;;;;;;;;;;;;;;;;;5096110;28;19916;-86
2023/03/21 01:30:22;;;;;;;;;;;;;;;;;;5077951;28;19961;-87
2023/03/21 01:32:47;;;;;;;;;;;;;;;;;;5096066;28;19986;-86
2023/03/21 01:35:12;;;;;;;;;;;;;;;;;;5077940;28;19927;-85
2023/03/21 01:37:38;;;;;;;;;;;;;;;;;;5078350;28;19970;-86
2023/03/21 01:40:04;;;;;;;;;;;;;;;;;;5078471;28;19966;-86
2023/03/21 01:42:29;;;;;;;;;;;;;;;;;;5096149;28;19924;-85
2023/03/21 01:44:59;;;;;;;;;;;;;;;;;;5096939;28;20367;-84
2023/03/21 01:47:25;;;;;;;;;;;;;;;;;;5095837;28;20371;-83
2023/03/21 01:49:54;;;;;;;;;;;;;;;;;;5077452;28;20010;-83
2023/03/21 01:52:22;;;;;;;;;;;;;;;;;;5095257;28;19924;-84
2023/03/21 01:54:48;;;;;;;;;;;;;;;;;;5096184;28;20028;-83
2023/03/21 01:57:31;;;;;;;;;;;;;;;;;;5113664;28;19912;-83
2023/03/21 01:59:57;;;;;;;;;;;;;;;;;;5115837;28;20015;-84
2023/03/21 02:02:30;;;;;;;;;;;;;;;;;;5092864;28;19912;-84
2023/03/21 02:04:57;;;;;;;;;;;;;;;;;;5108233;28;19920;-85
2023/03/21 02:07:30;;;;;;;;;;;;;;;;;;5098314;28;19912;-85
2023/03/21 02:09:57;;;;;;;;;;;;;;;;;;5095434;28;19920;-86
2023/03/21 02:12:22;;;;;;;;;;;;;;;;;;5095209;28;19923;-86
2023/03/21 02:14:48;;;;;;;;;;;;;;;;;;5077106;28;19920;-85
2023/03/21 02:17:14;;;;;;;;;;;;;;;;;;5077030;28;20391;-86
2023/03/21 02:19:57;;;;;;;;;;;;;;;;;;5076994;28;19923;-86
2023/03/21 02:22:34;;;;;;;;;;;;;;;;;;5076938;28;19923;-87
2023/03/21 02:25:08;;;;;;;;;;;;;;;;;;5095073;28;19916;-84
2023/03/21 02:27:36;;;;;;;;;;;;;;;;;;5094937;28;19916;-85
2023/03/21 02:30:19;;;;;;;;;;;;;;;;;;5094927;28;20377;-84
2023/03/21 02:33:03;;;;;;;;;;;;;;;;;;5076646;28;19959;-84
2023/03/21 02:35:29;;;;;;;;;;;;;;;;;;5094937;28;20337;-85
2023/03/21 02:37:57;;;;;;;;;;;;;;;;;;5076596;28;19916;-84
2023/03/21 02:40:26;;;;;;;;;;;;;;;;;;5094779;28;20400;-84
2023/03/21 02:43:05;;;;;;;;;;;;;;;;;;5076445;28;19948;-85
2023/03/21 02:45:37;;;;;;;;;;;;;;;;;;5094615;28;19916;-87
2023/03/21 02:48:05;;;;;;;;;;;;;;;;;;5094633;28;20389;-84
2023/03/21 02:50:36;;;;;;;;;;;;;;;;;;5076448;28;19916;-86
2023/03/21 02:53:03;;;;;;;;;;;;;;;;;;5072795;28;19927;-83
2023/03/21 02:55:30;;;;;;;;;;;;;;;;;;5074199;28;20534;-85
2023/03/21 02:57:56;;;;;;;;;;;;;;;;;;5074282;28;19916;-86
2023/03/21 03:00:26;;;;;;;;;;;;;;;;;;5072706;28;20333;-85
2023/03/21 03:02:52;;;;;;;;;;;;;;;;;;5074324;28;19923;-85
2023/03/21 03:05:19;;;;;;;;;;;;;;;;;;5073952;28;19920;-85
2023/03/21 03:07:47;;;;;;;;;;;;;;;;;;5074125;28;20372;-86
2023/03/21 03:10:38;;;;;;;;;;;;;;;;;;5074075;28;20007;-85
2023/03/21 03:13:22;;;;;;;;;;;;;;;;;;5073777;28;19920;-87
2023/03/21 03:15:53;;;;;;;;;;;;;;;;;;5073791;28;19916;-85
2023/03/21 03:18:28;;;;;;;;;;;;;;;;;;5073884;28;19916;-85
2023/03/21 03:21:01;;;;;;;;;;;;;;;;;;5072574;28;19925;-86
2023/03/21 03:23:27;;;;;;;;;;;;;;;;;;5073559;28;20003;-86
2023/03/21 03:25:59;;;;;;;;;;;;;;;;;;5072361;28;20461;-84
2023/03/21 03:28:27;;;;;;;;;;;;;;;;;;5073639;28;19916;-85
2023/03/21 03:30:53;;;;;;;;;;;;;;;;;;5073657;28;20003;-84
2023/03/21 03:33:22;;;;;;;;;;;;;;;;;;5072154;28;20102;-86
2023/03/21 03:35:49;;;;;;;;;;;;;;;;;;5073359;28;19920;-84
2023/03/21 03:38:16;;;;;;;;;;;;;;;;;;5073510;28;19924;-84
2023/03/21 03:40:44;;;;;;;;;;;;;;;;;;5073599;28;20033;-86
2023/03/21 03:43:16;;;;;;;;;;;;;;;;;;5072216;28;19917;-84
2023/03/21 03:45:45;;;;;;;;;;;;;;;;;;5073459;28;19920;-84
2023/03/21 03:48:10;;;;;;;;;;;;;;;;;;5073530;28;20431;-84
2023/03/21 03:50:41;;;;;;;;;;;;;;;;;;5073364;28;19959;-85
2023/03/21 03:53:19;;;;;;;;;;;;;;;;;;5088188;28;20653;-84
2023/03/21 03:55:45;;;;;;;;;;;;;;;;;;5075546;28;19916;-85
2023/03/21 03:58:11;;;;;;;;;;;;;;;;;;5075556;28;20014;-85
2023/03/21 04:00:36;;;;;;;;;;;;;;;;;;5093455;28;19916;-84
2023/03/21 04:03:02;;;;;;;;;;;;;;;;;;5093308;28;20375;-84
2023/03/21 04:05:28;;;;;;;;;;;;;;;;;;5075182;28;20372;-85
2023/03/21 04:07:53;;;;;;;;;;;;;;;;;;5093365;28;20264;-86
2023/03/21 04:10:19;;;;;;;;;;;;;;;;;;5093305;28;19920;-85
2023/03/21 04:12:45;;;;;;;;;;;;;;;;;;5093302;28;19922;-85
2023/03/21 04:15:10;;;;;;;;;;;;;;;;;;5092746;28;19916;-87
2023/03/21 04:17:38;;;;;;;;;;;;;;;;;;5079211;28;19938;-84
2023/03/21 04:20:07;;;;;;;;;;;;;;;;;;5075283;28;19927;-84
2023/03/21 04:22:33;;;;;;;;;;;;;;;;;;5082666;28;19923;-85
2023/03/21 04:25:00;;;;;;;;;;;;;;;;;;5093218;28;19920;-86
2023/03/21 04:27:26;;;;;;;;;;;;;;;;;;5093265;28;19916;-87
2023/03/21 04:29:51;;;;;;;;;;;;;;;;;;5093258;28;19912;-85
2023/03/21 04:32:18;;;;;;;;;;;;;;;;;;5088518;28;19920;-85
2023/03/21 04:34:48;;;;;;;;;;;;;;;;;;5077904;28;19948;-86
2023/03/21 04:37:15;;;;;;;;;;;;;;;;;;5080438;28;19917;-84
2023/03/21 04:39:41;;;;;;;;;;;;;;;;;;5076761;28;20334;-83
2023/03/21 04:42:07;;;;;;;;;;;;;;;;;;5087422;28;19920;-87
2023/03/21 04:44:32;;;;;;;;;;;;;;;;;;5086795;28;19923;-86
2023/03/21 04:46:57;;;;;;;;;;;;;;;;;;5076672;28;19920;-84
2023/03/21 04:49:23;;;;;;;;;;;;;;;;;;5076472;28;19964;-84
2023/03/21 04:51:48;;;;;;;;;;;;;;;;;;5054989;28;19920;-84
2023/03/21 04:54:14;;;;;;;;;;;;;;;;;;5055112;28;19917;-84
2023/03/21 04:56:39;;;;;;;;;;;;;;;;;;5056353;28;19916;-85
2023/03/21 04:59:07;;;;;;;;;;;;;;;;;;5065072;28;19917;-85
2023/03/21 05:01:32;;;;;;;;;;;;;;;;;;5056332;28;19917;-85
2023/03/21 05:03:59;;;;;;;;;;;;;;;;;;5056434;28;20395;-84
2023/03/21 05:06:26;;;;;;;;;;;;;;;;;;5056280;28;19924;-85
2023/03/21 05:08:52;;;;;;;;;;;;;;;;;;5056259;28;19920;-82
2023/03/21 05:11:17;;;;;;;;;;;;;;;;;;5056381;28;19931;-84
2023/03/21 05:13:43;;;;;;;;;;;;;;;;;;5056084;28;20372;-83
2023/03/21 05:16:08;;;;;;;;;;;;;;;;;;5056280;28;19917;-83
2023/03/21 05:18:37;;;;;;;;;;;;;;;;;;5055231;28;19917;-83
2023/03/21 05:21:03;;;;;;;;;;;;;;;;;;5054752;28;19921;-84
2023/03/21 05:23:30;;;;;;;;;;;;;;;;;;5055904;28;20374;-84
2023/03/21 05:25:55;;;;;;;;;;;;;;;;;;5056084;28;20395;-83
2023/03/21 05:28:21;;;;;;;;;;;;;;;;;;5055773;28;19917;-83
2023/03/21 05:30:46;;;;;;;;;;;;;;;;;;5054394;28;19913;-86
2023/03/21 05:33:12;;;;;;;;;;;;;;;;;;5056095;28;19928;-84
2023/03/21 05:35:38;;;;;;;;;;;;;;;;;;5058413;28;19925;-83
2023/03/21 05:38:03;;;;;;;;;;;;;;;;;;5054071;28;19921;-85
2023/03/21 05:40:29;;;;;;;;;;;;;;;;;;5054582;28;20385;-85
2023/03/21 05:42:54;;;;;;;;;;;;;;;;;;5055149;28;19921;-84
2023/03/21 05:45:19;;;;;;;;;;;;;;;;;;5054669;28;19917;-83
2023/03/21 05:47:45;;;;;;;;;;;;;;;;;;5055192;28;20360;-84
2023/03/21 05:50:12;;;;;;;;;;;;;;;;;;5055141;28;20334;-82
2023/03/21 05:52:37;;;;;;;;;;;;;;;;;;5066085;28;20007;-83
2023/03/21 05:55:03;;;;;;;;;;;;;;;;;;5075590;28;19959;-82
2023/03/21 05:57:28;;;;;;;;;;;;;;;;;;5075362;28;19917;-83
2023/03/21 05:59:54;;;;;;;;;;;;;;;;;;5075430;28;19923;-84
2023/03/21 06:02:19;;;;;;;;;;;;;;;;;;5075180;28;19916;-83
2023/03/21 06:04:45;;;;;;;;;;;;;;;;;;5057271;28;19917;-83
2023/03/21 06:07:10;;;;;;;;;;;;;;;;;;5075141;28;19927;-83
2023/03/21 06:09:36;;;;;;;;;;;;;;;;;;5075053;28;20385;-84
2023/03/21 06:12:01;;;;;;;;;;;;;;;;;;5075022;28;20449;-83
2023/03/21 06:14:27;;;;;;;;;;;;;;;;;;5074926;28;19916;-83
2023/03/21 06:16:55;;;;;;;;;;;;;;;;;;5075147;28;19979;-84
2023/03/21 06:19:21;;;;;;;;;;;;;;;;;;5056814;28;19917;-84
2023/03/21 06:21:46;;;;;;;;;;;;;;;;;;5057179;28;19923;-83
2023/03/21 06:24:12;;;;;;;;;;;;;;;;;;5075268;28;19924;-83
2023/03/21 06:26:37;;;;;;;;;;;;;;;;;;5075143;28;19927;-83
2023/03/21 06:29:03;;;;;;;;;;;;;;;;;;5076216;28;19923;-84
2023/03/21 06:31:28;;;;;;;;;;;;;;;;;;5076428;28;20299;-84
2023/03/21 06:33:54;;;;;;;;;;;;;;;;;;5088983;28;19916;-83
2023/03/21 06:36:20;;;;;;;;;;;;;;;;;;5088693;28;19917;-83
2023/03/21 06:38:45;;;;;;;;;;;;;;;;;;5083678;28;19944;-84
2023/03/21 06:41:11;;;;;;;;;;;;;;;;;;5078984;28;20291;-84
2023/03/21 06:43:36;;;;;;;;;;;;;;;;;;5074854;28;19970;-82
2023/03/21 06:46:02;;;;;;;;;;;;;;;;;;5056473;28;19912;-83
2023/03/21 06:48:28;;;;;;;;;;;;;;;;;;5056605;28;19924;-84
2023/03/21 06:50:54;;;;;;;;;;;;;;;;;;5074387;28;20450;-83
2023/03/21 06:53:23;;;;;;;;;;;;;;;;;;5053238;28;19974;-84
2023/03/21 06:55:52;;;;;;;;;;;;;;;;;;5069415;28;19960;-85
2023/03/21 06:58:17;;;;;;;;;;;;;;;;;;5055587;28;19921;-84
2023/03/21 07:00:43;;;;;;;;;;;;;;;;;;5056185;28;19938;-84
2023/03/21 07:03:09;;;;;;;;;;;;;;;;;;5074146;28;20490;-85
2023/03/21 07:05:35;;;;;;;;;;;;;;;;;;5074080;28;20027;-86
2023/03/21 07:08:01;;;;;;;;;;;;;;;;;;5073974;28;20011;-84
2023/03/21 07:10:26;;;;;;;;;;;;;;;;;;5073909;28;19951;-85
2023/03/21 07:12:51;;;;;;;;;;;;;;;;;;5073776;28;20003;-83
2023/03/21 07:15:17;;;;;;;;;;;;;;;;;;5073879;28;20385;-84
2023/03/21 07:17:42;;;;;;;;;;;;;;;;;;5055864;28;20383;-83
2023/03/21 07:20:11;;;;;;;;;;;;;;;;;;5073919;28;20411;-84
2023/03/21 07:22:37;;;;;;;;;;;;;;;;;;5073680;28;19913;-83
2023/03/21 07:25:03;;;;;;;;;;;;;;;;;;5073913;28;20307;-83
2023/03/21 07:27:28;;;;;;;;;;;;;;;;;;5073628;28;20288;-83
2023/03/21 07:29:54;;;;;;;;;;;;;;;;;;5055712;28;19964;-83
2023/03/21 07:32:19;;;;;;;;;;;;;;;;;;5073664;28;19980;-83
2023/03/21 07:34:45;;;;;;;;;;;;;;;;;;5073678;28;20011;-85
2023/03/21 07:37:11;;;;;;;;;;;;;;;;;;5073440;28;19923;-85
2023/03/21 07:39:37;;;;;;;;;;;;;;;;;;5073555;28;20000;-85
2023/03/21 07:42:02;;;;;;;;;;;;;;;;;;5073439;28;20007;-84
2023/03/21 07:44:29;;;;;;;;;;;;;;;;;;5055909;28;20434;-83
2023/03/21 07:46:54;;;;;;;;;;;;;;;;;;5073517;28;20292;-83
2023/03/21 07:49:20;;;;;;;;;;;;;;;;;;5055432;28;19916;-83
2023/03/21 07:51:46;;;;;;;;;;;;;;;;;;5073566;28;20368;-83
2023/03/21 07:54:11;;;;;;;;;;;;;;;;;;5048594;28;19921;-84
2023/03/21 07:56:36;;;;;;;;;;;;;;;;;;5033538;28;20419;-86
2023/03/21 07:59:04;;;;;;;;;;;;;;;;;;5033464;28;19959;-84
2023/03/21 08:01:29;;;;;;;;;;;;;;;;;;5065233;28;19924;-84
2023/03/21 08:03:55;;;;;;;;;;;;;;;;;;5033349;28;19917;-84
2023/03/21 08:06:20;;;;;;;;;;;;;;;;;;5033344;28;19921;-84
2023/03/21 08:08:45;;;;;;;;;;;;;;;;;;5034241;28;20373;-86
2023/03/21 08:11:11;;;;;;;;;;;;;;;;;;5037376;28;19971;-86
2023/03/21 08:13:36;;;;;;;;;;;;;;;;;;5037555;28;19971;-84
2023/03/21 08:16:02;;;;;;;;;;;;;;;;;;5037358;28;20348;-83
2023/03/21 08:18:28;;;;;;;;;;;;;;;;;;5037214;28;20000;-84
2023/03/21 08:20:54;;;;;;;;;;;;;;;;;;5069245;28;19917;-83
2023/03/21 08:23:20;;;;;;;;;;;;;;;;;;5037190;28;19964;-85
2023/03/21 08:25:50;;;;;;;;;;;;;;;;;;5036979;28;19963;-84
2023/03/21 08:28:16;;;;;;;;;;;;;;;;;;5035691;28;20273;-84
2023/03/21 08:30:41;;;;;;;;;;;;;;;;;;5037078;28;19920;-85
2023/03/21 08:33:07;;;;;;;;;;;;;;;;;;5036806;28;20258;-84
2023/03/21 08:35:33;;;;;;;;;;;;;;;;;;5068962;28;19956;-85
2023/03/21 08:37:58;;;;;;;;;;;;;;;;;;5036821;28;20009;-84
2023/03/21 08:40:24;;;;;;;;;;;;;;;;;;5036841;28;19924;-84
2023/03/21 08:42:50;;;;;;;;;;;;;;;;;;5036849;28;19940;-84
2023/03/21 08:45:16;;;;;;;;;;;;;;;;;;5035371;28;20361;-85
2023/03/21 08:47:41;;;;;;;;;;;;;;;;;;5036777;28;19925;-85
2023/03/21 08:50:10;;;;;;;;;;;;;;;;;;5036565;28;19936;-85
2023/03/21 08:52:36;;;;;;;;;;;;;;;;;;5036542;28;20368;-86
2023/03/21 08:55:02;;;;;;;;;;;;;;;;;;5060367;28;19921;-84
2023/03/21 08:57:28;;;;;;;;;;;;;;;;;;5076462;28;19927;-83
2023/03/21 08:59:54;;;;;;;;;;;;;;;;;;5076414;28;19917;-83
2023/03/21 09:02:19;;;;;;;;;;;;;;;;;;5076334;28;19922;-83
2023/03/21 09:04:46;;;;;;;;;;;;;;;;;;5058544;28;20353;-83
2023/03/21 09:07:13;;;;;;;;;;;;;;;;;;5076344;28;19955;-83
2023/03/21 09:09:40;;;;;;;;;;;;;;;;;;5076090;28;20015;-83
2023/03/21 09:12:05;;;;;;;;;;;;;;;;;;5075985;28;19917;-85
2023/03/21 09:14:32;;;;;;;;;;;;;;;;;;5076007;28;19917;-82
2023/03/21 09:16:57;;;;;;;;;;;;;;;;;;5075962;28;20003;-84
2023/03/21 09:19:23;;;;;;;;;;;;;;;;;;5057909;28;20013;-84
2023/03/21 09:21:48;;;;;;;;;;;;;;;;;;5075132;28;19928;-83
2023/03/21 09:24:14;;;;;;;;;;;;;;;;;;5057887;28;19928;-85
2023/03/21 09:26:40;;;;;;;;;;;;;;;;;;5057707;28;20356;-85
2023/03/21 09:29:06;;;;;;;;;;;;;;;;;;5075805;28;19923;-84
2023/03/21 09:31:32;;;;;;;;;;;;;;;;;;5057662;28;19920;-84
2023/03/21 09:33:57;;;;;;;;;;;;;;;;;;5075567;28;19956;-83
2023/03/21 09:36:26;;;;;;;;;;;;;;;;;;5075513;28;19969;-83
2023/03/21 09:38:51;;;;;;;;;;;;;;;;;;5057609;28;19970;-83
2023/03/21 09:41:36;;;;;;;;;;;;;;;;;;5057526;28;19920;-84
2023/03/21 09:44:02;;;;;;;;;;;;;;;;;;5075551;28;19916;-83
2023/03/21 09:46:47;;;;;;;;;;;;;;;;;;5075399;28;20380;-83
2023/03/21 09:49:17;;;;;;;;;;;;;;;;;;5075389;28;19919;-84
2023/03/21 09:51:52;;;;;;;;;;;;;;;;;;5075296;28;19923;-85
2023/03/21 09:54:21;;;;;;;;;;;;;;;;;;5074999;28;20015;-83
2023/03/21 09:56:48;;;;;;;;;;;;;;;;;;5075253;28;20296;-84
2023/03/21 09:59:40;;;;;;;;;;;;;;;;;;5075096;28;19913;-84
2023/03/21 10:02:31;;;;;;;;;;;;;;;;;;5075174;28;20013;-84
2023/03/21 10:04:56;;;;;;;;;;;;;;;;;;5075068;28;19912;-83
2023/03/21 10:07:22;;;;;;;;;;;;;;;;;;5057033;28;19920;-84
2023/03/21 10:09:50;;;;;;;;;;;;;;;;;;5074949;28;19920;-84
2023/03/21 10:12:20;;;;;;;;;;;;;;;;;;5074814;28;19912;-83
2023/03/21 10:14:50;;;;;;;;;;;;;;;;;;5074764;28;20392;-83
2023/03/21 10:17:32;;;;;;;;;;;;;;;;;;5074709;28;19923;-84
2023/03/21 10:20:10;;;;;;;;;;;;;;;;;;5074752;28;19931;-84
2023/03/21 10:22:36;;;;;;;;;;;;;;;;;;5056932;28;19916;-84
2023/03/21 10:25:02;;;;;;;;;;;;;;;;;;5074679;28;19924;-84
2023/03/21 10:27:28;;;;;;;;;;;;;;;;;;5074592;28;19962;-84
2023/03/21 10:29:56;;;;;;;;;;;;;;;;;;5074549;28;19924;-83
2023/03/21 10:32:21;;;;;;;;;;;;;;;;;;5073421;28;19923;-84
2023/03/21 10:34:52;;;;;;;;;;;;;;;;;;5056433;28;19917;-83
2023/03/21 10:37:17;;;;;;;;;;;;;;;;;;5056750;28;19917;-84
2023/03/21 10:39:45;;;;;;;;;;;;;;;;;;5074292;28;19924;-82
2023/03/21 10:42:20;;;;;;;;;;;;;;;;;;5074267;28;19923;-83
2023/03/21 10:44:47;;;;;;;;;;;;;;;;;;5074254;28;19939;-85
2023/03/21 10:47:17;;;;;;;;;;;;;;;;;;5056217;28;20396;-85
2023/03/21 10:49:45;;;;;;;;;;;;;;;;;;5074159;28;19940;-85
2023/03/21 10:52:12;;;;;;;;;;;;;;;;;;5074000;28;19916;-84
2023/03/21 10:54:38;;;;;;;;;;;;;;;;;;5052484;28;19928;-84
2023/03/21 10:57:06;;;;;;;;;;;;;;;;;;5054094;28;19920;-85
2023/03/21 10:59:43;;;;;;;;;;;;;;;;;;5054073;28;19931;-84
2023/03/21 11:02:38;;;;;;;;;;;;;;;;;;5054193;28;19927;-84
2023/03/21 11:05:05;;;;;;;;;;;;;;;;;;5052550;28;19923;-85
2023/03/21 11:07:31;;;;;;;;;;;;;;;;;;5052781;28;20010;-83
2023/03/21 11:09:57;;;;;;;;;;;;;;;;;;5054175;28;19971;-84
2023/03/21 11:12:32;;;;;;;;;;;;;;;;;;5055886;28;20011;-84
2023/03/21 11:15:12;;;;;;;;;;;;;;;;;;5053836;28;19917;-84
2023/03/21 11:17:38;;;;;;;;;;;;;;;;;;5060590;28;19920;-84
2023/03/21 11:20:05;;;;;;;;;;;;;;;;;;5066797;28;19917;-85
2023/03/21 11:22:37;;;;;;;;;;;;;;;;;;5065820;28;19924;-85
2023/03/21 11:25:05;;;;;;;;;;;;;;;;;;5061598;28;20007;-85
2023/03/21 11:27:31;;;;;;;;;;;;;;;;;;5059858;28;20369;-86
2023/03/21 11:29:58;;;;;;;;;;;;;;;;;;5058746;28;19917;-84
2023/03/21 11:32:24;;;;;;;;;;;;;;;;;;5057199;28;19917;-85
2023/03/21 11:34:56;;;;;;;;;;;;;;;;;;5058558;28;19917;-86
2023/03/21 11:37:25;;;;;;;;;;;;;;;;;;5056076;28;19956;-85
2023/03/21 11:39:54;;;;;;;;;;;;;;;;;;5055903;28;19971;-86
2023/03/21 11:42:25;;;;;;;;;;;;;;;;;;5055325;28;19916;-85
2023/03/21 11:44:56;;;;;;;;;;;;;;;;;;5054894;28;19917;-84
2023/03/21 11:47:21;;;;;;;;;;;;;;;;;;5053942;28;19917;-84
2023/03/21 11:49:47;;;;;;;;;;;;;;;;;;5054034;28;19924;-83
2023/03/21 11:52:18;;;;;;;;;;;;;;;;;;5052511;28;19968;-86
2023/03/21 11:54:57;;;;;;;;;;;;;;;;;;5062563;28;20055;-84
2023/03/21 11:57:34;;;;;;;;;;;;;;;;;;5073746;28;19964;-83
2023/03/21 12:00:00;;;;;;;;;;;;;;;;;;5073659;28;19921;-83
2023/03/21 12:02:44;;;;;;;;;;;;;;;;;;5074030;28;19924;-87
2023/03/21 12:05:18;;;;;;;;;;;;;;;;;;5073587;28;19921;-86
2023/03/21 12:07:44;;;;;;;;;;;;;;;;;;5073600;28;19948;-84
2023/03/21 12:10:18;;;;;;;;;;;;;;;;;;5073584;28;19916;-84
2023/03/21 12:13:02;;;;;;;;;;;;;;;;;;5073429;28;19962;-84
2023/03/21 12:15:35;;;;;;;;;;;;;;;;;;5073183;28;19917;-85
2023/03/21 12:18:19;;;;;;;;;;;;;;;;;;5073523;28;19925;-83
2023/03/21 12:20:45;;;;;;;;;;;;;;;;;;5073092;28;19913;-85
2023/03/21 12:23:16;;;;;;;;;;;;;;;;;;5073127;28;19921;-83
2023/03/21 12:25:46;;;;;;;;;;;;;;;;;;5073123;28;19912;-84
2023/03/21 12:28:27;;;;;;;;;;;;;;;;;;5073290;28;20012;-84
2023/03/21 12:31:05;;;;;;;;;;;;;;;;;;5054959;28;19916;-84
2023/03/21 12:33:30;;;;;;;;;;;;;;;;;;5073440;28;19916;-83
2023/03/21 12:36:16;;;;;;;;;;;;;;;;;;5072974;28;19917;-83
2023/03/21 12:38:58;;;;;;;;;;;;;;;;;;5072909;28;20367;-86
2023/03/21 12:41:38;;;;;;;;;;;;;;;;;;5072865;28;19924;-84
2023/03/21 12:44:04;;;;;;;;;;;;;;;;;;5054820;28;19999;-85
2023/03/21 12:46:48;;;;;;;;;;;;;;;;;;5072816;28;19993;-86
2023/03/21 12:49:19;;;;;;;;;;;;;;;;;;5054887;28;19921;-84
2023/03/21 12:51:50;;;;;;;;;;;;;;;;;;5072803;28;19917;-85
2023/03/21 12:54:22;;;;;;;;;;;;;;;;;;5072488;28;19928;-84
2023/03/21 12:56:59;;;;;;;;;;;;;;;;;;5075002;28;19920;-85
2023/03/21 12:59:36;;;;;;;;;;;;;;;;;;5076435;28;20042;-85
2023/03/21 13:02:21;;;;;;;;;;;;;;;;;;5076304;28;19916;-84
2023/03/21 13:04:51;;;;;;;;;;;;;;;;;;5076266;28;19957;-84
2023/03/21 13:07:18;;;;;;;;;;;;;;;;;;5076182;28;20383;-83
2023/03/21 13:09:45;;;;;;;;;;;;;;;;;;5076120;28;19916;-85
2023/03/21 13:12:21;;;;;;;;;;;;;;;;;;5076154;28;19920;-84
2023/03/21 13:15:09;;;;;;;;;;;;;;;;;;5076003;28;20011;-84
2023/03/21 13:17:45;;;;;;;;;;;;;;;;;;5075740;28;19960;-84
2023/03/21 13:20:32;;;;;;;;;;;;;;;;;;5075880;28;19964;-85
2023/03/21 13:22:57;;;;;;;;;;;;;;;;;;5075938;28;19917;-84
2023/03/21 13:25:24;;;;;;;;;;;;;;;;;;5075864;28;19963;-84
2023/03/21 13:27:51;;;;;;;;;;;;;;;;;;5075634;28;19917;-84
2023/03/21 13:30:19;;;;;;;;;;;;;;;;;;5075736;28;19917;-84
2023/03/21 13:32:47;;;;;;;;;;;;;;;;;;5061219;28;19959;-84
2023/03/21 13:35:18;;;;;;;;;;;;;;;;;;5090467;28;19916;-84
2023/03/21 13:37:51;;;;;;;;;;;;;;;;;;5078868;28;20324;-85
2023/03/21 13:40:21;;;;;;;;;;;;;;;;;;5094279;28;19920;-83
2023/03/21 13:42:55;;;;;;;;;;;;;;;;;;5063951;28;19916;-84
2023/03/21 13:45:44;;;;;;;;;;;;;;;;;;5078745;28;19916;-84
2023/03/21 13:48:29;;;;;;;;;;;;;;;;;;5087340;28;20006;-84
2023/03/21 13:51:00;;;;;;;;;;;;;;;;;;5094472;28;19962;-83
2023/03/21 13:53:35;;;;;;;;;;;;;;;;;;5076425;28;20015;-83
2023/03/21 13:56:13;;;;;;;;;;;;;;;;;;5073886;28;19925;-84
2023/03/21 13:58:49;;;;;;;;;;;;;;;;;;5059765;28;19974;-86
2023/03/21 14:01:34;;;;;;;;;;;;;;;;;;5095449;28;19916;-84
2023/03/21 14:04:19;;;;;;;;;;;;;;;;;;5095461;28;19916;-86
2023/03/21 14:06:48;;;;;;;;;;;;;;;;;;5076944;28;19969;-86
2023/03/21 14:09:33;;;;;;;;;;;;;;;;;;5095283;28;19927;-85
2023/03/21 14:12:00;;;;;;;;;;;;;;;;;;5094730;28;19924;-86
2023/03/21 14:14:28;;;;;;;;;;;;;;;;;;5095053;28;19916;-84
2023/03/21 14:16:54;;;;;;;;;;;;;;;;;;5095124;28;19943;-85
2023/03/21 14:19:27;;;;;;;;;;;;;;;;;;5095181;28;19942;-87
2023/03/21 14:21:52;;;;;;;;;;;;;;;;;;5094950;28;20010;-85
2023/03/21 14:24:19;;;;;;;;;;;;;;;;;;5095072;28;19951;-84
2023/03/21 14:26:49;;;;;;;;;;;;;;;;;;5076791;28;19924;-84
2023/03/21 14:29:24;;;;;;;;;;;;;;;;;;5094926;28;19916;-84
2023/03/21 14:31:49;;;;;;;;;;;;;;;;;;5092125;28;20253;-84
2023/03/21 14:34:15;;;;;;;;;;;;;;;;;;5090168;28;19974;-85
2023/03/21 14:36:41;;;;;;;;;;;;;;;;;;5056606;28;20029;-84
2023/03/21 14:39:12;;;;;;;;;;;;;;;;;;5056537;28;20022;-85
2023/03/21 14:41:48;;;;;;;;;;;;;;;;;;5074367;28;19924;-84
2023/03/21 14:44:16;;;;;;;;;;;;;;;;;;5056299;28;20074;-84
2023/03/21 14:46:42;;;;;;;;;;;;;;;;;;5085132;28;19930;-85
2023/03/21 14:49:17;;;;;;;;;;;;;;;;;;5094387;28;20434;-85
2023/03/21 14:51:45;;;;;;;;;;;;;;;;;;5076265;28;19916;-84
2023/03/21 14:54:12;;;;;;;;;;;;;;;;;;5072558;28;19920;-84
2023/03/21 14:56:38;;;;;;;;;;;;;;;;;;5074138;28;19923;-84
2023/03/21 14:59:03;;;;;;;;;;;;;;;;;;5072793;28;20384;-85
2023/03/21 15:01:31;;;;;;;;;;;;;;;;;;5074100;28;19969;-85
2023/03/21 15:03:58;;;;;;;;;;;;;;;;;;5074010;28;19924;-85
2023/03/21 15:06:23;;;;;;;;;;;;;;;;;;5072623;28;19912;-84
2023/03/21 15:08:53;;;;;;;;;;;;;;;;;;5073796;28;19916;-83
2023/03/21 15:11:27;;;;;;;;;;;;;;;;;;5073758;28;19916;-84
2023/03/21 15:13:53;;;;;;;;;;;;;;;;;;5072472;28;19924;-84
2023/03/21 15:16:19;;;;;;;;;;;;;;;;;;5073628;28;20428;-84
2023/03/21 15:18:45;;;;;;;;;;;;;;;;;;5068559;28;19924;-84
2023/03/21 15:21:22;;;;;;;;;;;;;;;;;;5089928;28;20377;-85
2023/03/21 15:23:51;;;;;;;;;;;;;;;;;;5056715;28;19926;-84
2023/03/21 15:26:19;;;;;;;;;;;;;;;;;;5056513;28;19970;-85
2023/03/21 15:28:45;;;;;;;;;;;;;;;;;;5059674;28;19921;-84
2023/03/21 15:31:22;;;;;;;;;;;;;;;;;;5059357;28;19916;-84
2023/03/21 15:33:48;;;;;;;;;;;;;;;;;;5062174;28;19924;-83
2023/03/21 15:36:27;;;;;;;;;;;;;;;;;;5053464;28;19928;-83
2023/03/21 15:38:54;;;;;;;;;;;;;;;;;;5053415;28;20422;-83
2023/03/21 15:41:19;;;;;;;;;;;;;;;;;;5053325;28;20004;-83
2023/03/21 15:44:00;;;;;;;;;;;;;;;;;;5053433;28;19944;-85
2023/03/21 15:46:38;;;;;;;;;;;;;;;;;;5052122;28;19917;-84
2023/03/21 15:49:16;;;;;;;;;;;;;;;;;;5053250;28;20430;-84
2023/03/21 15:52:01;;;;;;;;;;;;;;;;;;5053160;28;20016;-84
2023/03/21 15:54:27;;;;;;;;;;;;;;;;;;5069756;28;19959;-83
2023/03/21 15:57:00;;;;;;;;;;;;;;;;;;5091194;28;19948;-83
2023/03/21 15:59:26;;;;;;;;;;;;;;;;;;5073229;28;19921;-82
2023/03/21 16:01:52;;;;;;;;;;;;;;;;;;5073255;28;19917;-83
2023/03/21 16:04:18;;;;;;;;;;;;;;;;;;5055140;28;19970;-83
2023/03/21 16:07:14;;;;;;;;;;;;;;;;;;5055226;28;20352;-84
2023/03/21 16:09:44;;;;;;;;;;;;;;;;;;5059415;28;19924;-85
2023/03/21 16:12:11;;;;;;;;;;;;;;;;;;5055090;28;19917;-83
2023/03/21 16:14:37;;;;;;;;;;;;;;;;;;5072958;28;19917;-84
2023/03/21 16:17:13;;;;;;;;;;;;;;;;;;5073103;28;19917;-84
2023/03/21 16:19:38;;;;;;;;;;;;;;;;;;5072967;28;20295;-83
2023/03/21 16:22:08;;;;;;;;;;;;;;;;;;5072963;28;19916;-82
2023/03/21 16:24:33;;;;;;;;;;;;;;;;;;5072968;28;20384;-83
2023/03/21 16:26:59;;;;;;;;;;;;;;;;;;5072968;28;19924;-84
2023/03/21 16:29:24;;;;;;;;;;;;;;;;;;5055234;28;19916;-83
2023/03/21 16:31:50;;;;;;;;;;;;;;;;;;5076948;28;19913;-84
2023/03/21 16:34:15;;;;;;;;;;;;;;;;;;5087646;28;19916;-83
2023/03/21 16:36:42;;;;;;;;;;;;;;;;;;5097247;28;20006;-84
2023/03/21 16:39:19;;;;;;;;;;;;;;;;;;5097525;28;20451;-83
2023/03/21 16:41:44;;;;;;;;;;;;;;;;;;5097129;28;19920;-84
2023/03/21 16:44:10;;;;;;;;;;;;;;;;;;5097220;28;19969;-83
2023/03/21 16:46:35;;;;;;;;;;;;;;;;;;5078884;28;19916;-84
2023/03/21 16:49:01;;;;;;;;;;;;;;;;;;5097148;28;19922;-83
2023/03/21 16:51:33;;;;;;;;;;;;;;;;;;5096813;28;19923;-82
2023/03/21 16:53:59;;;;;;;;;;;;;;;;;;5096771;28;19975;-84
2023/03/21 16:56:27;;;;;;;;;;;;;;;;;;5080502;28;19923;-84
2023/03/21 16:58:53;;;;;;;;;;;;;;;;;;5081537;28;19965;-83
2023/03/21 17:01:20;;;;;;;;;;;;;;;;;;5104479;28;20339;-83